• Join FlightAware (Why Join?)
  • Login
  • US Flag 
07:01AM EDT


 

Airport Tracker/Info


-or-


 

Live Flight TrackerFlight Track Log ✈ C-GMOT ✈ 17-Apr-2013 ✈ CYUL - CYKZ

Flight Track Log - Related Links

Times and Time Zones

All times are in EDT time to prevent confusion due to time zone crossing. See the C-GMOT flight status page for this flight to view local times or setup timezone preferences in your user account.

Time Position Orientation Groundspeed Altitude Reporting Facility
EDT Latitude Longitude Course Direction KTS MPH feet Rate Location/Type
04:29PM 45.5167 -73.7167 298° West 100 115 2,300  Level Montreal Center
04:30PM 45.5167 -73.7667 270° West 120 138 3,100 780 Climbing Montreal Center
04:31PM 45.5167 -73.8167 270° West 130 150 3,900 780 Climbing Montreal Center
04:32PM 45.5167 -73.8667 270° West 130 150 4,700 600 Climbing Montreal Center
04:33PM 45.5945 -74.1016 298° West  Level FlightAware Approximate
04:33PM 45.5167 -73.9333 270° West 140 161 5,100  Level Montreal Center
04:34PM 45.5167 -73.9833 270° West 140 161 5,800 600 Climbing Montreal Center
04:35PM 45.5167 -74.0333 270° West 140 161 6,400 600 Climbing Montreal Center
04:36PM 45.5167 -74.1000 270° West 150 173 7,100 660 Climbing Montreal Center
04:37PM 45.5167 -74.1500 270° West 140 161 7,800 480 Climbing Montreal Center
04:38PM 45.5167 -74.2000 270° West 130 150 8,100 60 Climbing Montreal Center
04:39PM 45.5167 -74.2500 270° West 140 161 8,000  Descending Montreal Center
04:40PM 45.5167 -74.3167 270° West 150 173 8,100  Climbing Montreal Center
04:41PM 45.5167 -74.3833 270° West 150 173 8,100 -60 Level Montreal Center
04:42PM 45.5000 -74.4333 245° Southwest 150 173 8,000  Descending Montreal Center
04:43PM 45.5000 -74.5167 270° West 150 173 8,100  Climbing Montreal Center
04:44PM 45.5000 -74.5500 270° West 150 173 8,100  Level Montreal Center
04:45PM 45.4833 -74.6000 245° Southwest 150 173 8,100  Level Montreal Center
04:46PM 45.4667 -74.6833 254° West 150 173 8,100  Level Montreal Center
04:47PM 45.4667 -74.7333 270° West 150 173 8,100 -60 Level Montreal Center
04:48PM 45.4500 -74.8000 250° West 150 173 8,000  Descending Montreal Center
04:49PM 45.4500 -74.8500 270° West 150 173 8,100  Climbing Montreal Center
04:50PM 45.4333 -74.9167 250° West 160 184 8,100  Level Montreal Center
04:51PM 45.4333 -74.9667 270° West 150 173 8,100  Level Montreal Center
04:52PM 45.4167 -75.0333 250° West 160 184 8,100  Level Montreal Center
04:53PM 45.4167 -75.1167 270° West 160 184 8,100  Level Montreal Center
04:54PM 45.4000 -75.1500 235° Southwest 160 184 8,100  Level Montreal Center
04:55PM 45.3833 -75.2333 254° West 160 184 8,100  Level Montreal Center
04:56PM 45.3833 -75.2833 270° West 160 184 8,100  Level Montreal Center
04:57PM 45.3667 -75.3500 250° West 160 184 8,100  Level Montreal Center
04:58PM 45.3667 -75.4000 270° West 160 184 8,100 -60 Level Montreal Center
04:59PM 45.3500 -75.4667 250° West 150 173 8,000  Descending Montreal Center
05:00PM 45.3500 -75.5167 270° West 150 173 8,100  Climbing Montreal Center
05:01PM 45.3333 -75.5833 250° West 160 184 8,100  Level Montreal Center
05:02PM 45.3333 -75.6333 270° West 160 184 8,100  Level Montreal Center
05:03PM 45.3167 -75.7000 250° West 160 184 8,100  Level Montreal Center
05:04PM 45.3000 -75.7500 245° Southwest 160 184 8,100  Level Montreal Center
05:05PM 45.2833 -75.8333 254° West 150 173 8,100  Level Montreal Center
05:06PM 45.2667 -75.8667 235° Southwest 160 184 8,100  Level Montreal Center
05:07PM 45.2667 -75.9500 270° West 160 184 8,100  Level Montreal Center
05:08PM 45.2667 -76.0000 270° West 160 184 8,100  Level Montreal Center
05:09PM 45.2500 -76.0667 250° West 160 184 8,100  Level Montreal Center
05:10PM 45.2500 -76.1333 270° West 160 184 8,100  Level Montreal Center
05:11PM 45.2500 -76.1833 270° West 150 173 8,100  Level Montreal Center
05:12PM 45.2333 -76.2333 245° Southwest 160 184 8,100  Level Montreal Center
05:13PM 45.2167 -76.3000 250° West 160 184 8,100  Level Montreal Center
05:14PM 45.1833 -76.3500 227° Southwest 160 184 8,100  Level Montreal Center
05:15PM 45.1667 -76.4167 250° West 160 184 8,100  Level Montreal Center
05:16PM 45.1500 -76.4667 245° Southwest 160 184 8,100  Level Montreal Center
05:17PM 45.1333 -76.5167 245° Southwest 160 184 8,100  Level Montreal Center
05:17PM 45.1167 -76.5167 180° South 160 184 8,100  Level Toronto Center
05:18PM 45.1000 -76.5667 245° Southwest 160 184 8,100  Level Toronto Center
05:19PM 45.0833 -76.6333 251° West 160 184 8,100  Level Montreal Center
05:20PM 45.0667 -76.6833 245° Southwest 160 184 8,100  Level Montreal Center
05:21PM 45.0333 -76.7500 235° Southwest 160 184 8,100  Level Montreal Center
05:22PM 45.0167 -76.8000 245° Southwest 160 184 8,100  Level Montreal Center
05:23PM 45.0000 -76.8500 245° Southwest 160 184 8,100  Level Montreal Center
05:24PM 44.9833 -76.8833 235° Southwest 160 184 8,100  Level Montreal Center
05:24PM 44.9667 -76.9000 215° Southwest 160 184 8,100  Level Toronto Center
05:25PM 44.9500 -76.9500 245° Southwest 160 184 8,100  Level Toronto Center
05:26PM 44.9333 -77.0000 245° Southwest 150 173 8,100  Level Toronto Center
05:27PM 44.9000 -77.0500 227° Southwest 160 184 8,100  Level Toronto Center
05:28PM 44.8833 -77.1167 251° West 160 184 8,100  Level Toronto Center
05:29PM 44.8667 -77.1667 245° Southwest 150 173 8,100  Level Montreal Center
05:30PM 44.8500 -77.2167 245° Southwest 160 184 8,100  Level Montreal Center
05:31PM 44.8333 -77.2667 245° Southwest 160 184 8,100  Level Montreal Center
05:32PM 44.8167 -77.3333 251° West 160 184 8,100  Level Montreal Center
05:33PM 44.7833 -77.3833 227° Southwest 150 173 8,100  Level Montreal Center
05:34PM 44.7667 -77.4333 245° Southwest 150 173 8,100  Level Montreal Center
05:35PM 44.7500 -77.4833 245° Southwest 150 173 8,100  Level Montreal Center
05:36PM 44.7333 -77.5500 251° West 150 173 8,100  Level Montreal Center
05:37PM 44.7167 -77.6000 245° Southwest 150 173 8,100  Level Montreal Center
05:38PM 44.6833 -77.6333 215° Southwest 150 173 8,100  Level Montreal Center
05:39PM 44.6667 -77.6833 245° Southwest 150 173 8,100  Level Montreal Center
05:39PM 44.6500 -77.6833 180° South 150 173 8,100  Level Toronto Center
05:40PM 44.6333 -77.7333 245° Southwest 150 173 8,100  Level Toronto Center
05:41PM 44.6167 -77.7833 245° Southwest 150 173 8,100  Level Montreal Center
05:42PM 44.6000 -77.8500 251° West 150 173 8,100  Level Montreal Center
05:43PM 44.5667 -77.9000 227° Southwest 150 173 8,100  Level Montreal Center
05:44PM 44.5500 -77.9333 235° Southwest 150 173 8,100 -120 Level Montreal Center
05:44PM 44.5500 -77.9167 90° East 150 173 8,000 -120 Descending Toronto Center
05:45PM 44.5167 -78.0000 241° Southwest 150 173 8,000  Level Toronto Center
05:46PM 44.5000 -78.0500 245° Southwest 150 173 8,000  Level Toronto Center
05:47PM 44.4833 -78.0833 235° Southwest 150 173 8,000  Level Toronto Center
05:48PM 44.4500 -78.1333 227° Southwest 150 173 8,000  Level Toronto Center
05:49PM 44.4333 -78.1833 245° Southwest 150 173 8,000 -60 Level Toronto Center
05:50PM 44.4167 -78.2333 245° Southwest 150 173 7,900 -240 Descending Toronto Center
05:51PM 44.3833 -78.3000 235° Southwest 160 184 7,600 -420 Descending Toronto Center
05:52PM 44.3667 -78.3500 245° Southwest 170 196 7,100 -540 Descending Toronto Center
05:53PM 44.3333 -78.4167 235° Southwest 170 196 6,600 -540 Descending Toronto Center
05:54PM 44.3167 -78.4667 245° Southwest 170 196 6,100 -540 Descending Toronto Center
05:55PM 44.3000 -78.5333 251° West 180 207 5,600 -480 Descending Toronto Center
05:56PM 44.2833 -78.5833 245° Southwest 180 207 5,200 -300 Descending Toronto Center
05:57PM 44.2667 -78.6333 245° Southwest 170 196 5,000 -120 Descending Toronto Center
05:58PM 44.2333 -78.7000 235° Southwest 170 196 5,000  Level Toronto Center
05:59PM 44.2000 -78.7500 227° Southwest 170 196 5,000  Level Toronto Center
06:00PM 44.1667 -78.8000 227° Southwest 170 196 5,000 -60 Level Toronto Center
06:01PM 44.1500 -78.8500 245° Southwest 170 196 4,900  Descending Toronto Center
06:02PM 44.1167 -78.9167 235° Southwest 170 196 5,000  Climbing Toronto Center
06:03PM 44.0833 -78.9667 227° Southwest 170 196 5,000  Level Toronto Center
06:05PM 44.0500 -79.0667 245° Southwest 170 196 5,100  Climbing Montreal Center
06:05PM 44.0333 -79.0500 144° Southeast 170 196 5,000 -240 Descending Toronto Center
06:06PM 44.0000 -79.1000 227° Southwest 160 184 4,800 -540 Descending Toronto Center
06:07PM 43.9667 -79.1500 227° Southwest 170 196 4,000 -720 Descending Toronto Center
06:08PM 43.9333 -79.2167 235° Southwest 160 184 3,400 -840 Descending Toronto Center
06:09PM 43.9167 -79.2667 245° Southwest 150 173 2,400 -840 Descending Toronto Center
06:10PM 43.9000 -79.3167 245° Southwest 140 161 1,800 -420 Descending Toronto Center
06:11PM 43.9000 -79.3500 270° West 110 127 1,600 -300 Descending Toronto Center
06:12PM 43.8667 -79.3500 180° South 90 104 1,200 -420 Descending Toronto Center
06:13PM 43.8500 -79.3500 180° South 80 92 800 -420 Descending Toronto Center